sensor_id;sensor_type;location;lat;lon;timestamp;P1;durP1;ratioP1;P2;durP2;ratioP2
71856;SDS011;63344;46.980;28.882;2022-11-25T00:01:28;4.15;;;1.85;;
71856;SDS011;63344;46.980;28.882;2022-11-25T00:03:57;4.05;;;1.83;;
71856;SDS011;63344;46.980;28.882;2022-11-25T00:06:30;4.68;;;2.35;;
71856;SDS011;63344;46.980;28.882;2022-11-25T00:09:03;5.47;;;2.50;;
71856;SDS011;63344;46.980;28.882;2022-11-25T00:11:33;5.85;;;2.50;;
71856;SDS011;63344;46.980;28.882;2022-11-25T00:16:29;5.10;;;2.47;;
71856;SDS011;63344;46.980;28.882;2022-11-25T00:18:57;6.97;;;2.00;;
71856;SDS011;63344;46.980;28.882;2022-11-25T00:21:26;5.47;;;2.13;;
71856;SDS011;63344;46.980;28.882;2022-11-25T00:23:56;4.30;;;1.80;;
71856;SDS011;63344;46.980;28.882;2022-11-25T00:26:26;4.80;;;2.25;;
71856;SDS011;63344;46.980;28.882;2022-11-25T00:28:56;4.18;;;2.25;;
71856;SDS011;63344;46.980;28.882;2022-11-25T00:31:26;6.65;;;2.72;;
71856;SDS011;63344;46.980;28.882;2022-11-25T00:33:55;5.40;;;2.47;;
71856;SDS011;63344;46.980;28.882;2022-11-25T00:36:24;5.90;;;2.25;;
71856;SDS011;63344;46.980;28.882;2022-11-25T00:38:58;5.43;;;2.53;;
71856;SDS011;63344;46.980;28.882;2022-11-25T00:41:29;3.92;;;2.22;;
71856;SDS011;63344;46.980;28.882;2022-11-25T00:44:15;3.13;;;1.80;;
71856;SDS011;63344;46.980;28.882;2022-11-25T00:47:06;5.25;;;2.17;;
71856;SDS011;63344;46.980;28.882;2022-11-25T00:49:37;5.80;;;2.60;;
71856;SDS011;63344;46.980;28.882;2022-11-25T00:52:07;3.63;;;1.83;;
71856;SDS011;63344;46.980;28.882;2022-11-25T00:54:36;3.35;;;2.10;;
71856;SDS011;63344;46.980;28.882;2022-11-25T00:57:04;3.95;;;1.77;;
71856;SDS011;63344;46.980;28.882;2022-11-25T00:59:31;4.68;;;1.80;;
71856;SDS011;63344;46.980;28.882;2022-11-25T01:01:59;4.30;;;2.08;;
71856;SDS011;63344;46.980;28.882;2022-11-25T01:04:26;3.53;;;1.52;;
71856;SDS011;63344;46.980;28.882;2022-11-25T01:06:54;4.63;;;2.10;;
71856;SDS011;63344;46.980;28.882;2022-11-25T01:09:22;4.13;;;1.80;;
71856;SDS011;63344;46.980;28.882;2022-11-25T01:11:49;4.22;;;2.58;;
71856;SDS011;63344;46.980;28.882;2022-11-25T01:14:17;2.85;;;1.75;;
71856;SDS011;63344;46.980;28.882;2022-11-25T01:16:45;6.03;;;2.95;;
71856;SDS011;63344;46.980;28.882;2022-11-25T01:19:14;4.88;;;2.60;;
71856;SDS011;63344;46.980;28.882;2022-11-25T01:21:43;4.15;;;2.13;;
71856;SDS011;63344;46.980;28.882;2022-11-25T01:24:10;6.10;;;2.78;;
71856;SDS011;63344;46.980;28.882;2022-11-25T01:26:40;4.00;;;1.65;;
71856;SDS011;63344;46.980;28.882;2022-11-25T01:29:17;4.85;;;2.70;;
71856;SDS011;63344;46.980;28.882;2022-11-25T01:31:45;5.07;;;2.30;;
71856;SDS011;63344;46.980;28.882;2022-11-25T01:34:18;3.88;;;1.80;;
71856;SDS011;63344;46.980;28.882;2022-11-25T01:36:47;6.35;;;2.72;;
71856;SDS011;63344;46.980;28.882;2022-11-25T01:39:16;2.90;;;1.73;;
71856;SDS011;63344;46.980;28.882;2022-11-25T01:41:45;3.50;;;1.95;;
71856;SDS011;63344;46.980;28.882;2022-11-25T01:44:18;5.43;;;2.50;;
71856;SDS011;63344;46.980;28.882;2022-11-25T01:46:59;3.85;;;1.77;;
71856;SDS011;63344;46.980;28.882;2022-11-25T01:49:50;3.88;;;2.38;;
71856;SDS011;63344;46.980;28.882;2022-11-25T01:52:21;6.28;;;3.08;;
71856;SDS011;63344;46.980;28.882;2022-11-25T01:54:59;5.95;;;2.90;;
71856;SDS011;63344;46.980;28.882;2022-11-25T02:00:08;6.53;;;2.83;;
71856;SDS011;63344;46.980;28.882;2022-11-25T02:02:36;3.30;;;1.85;;
71856;SDS011;63344;46.980;28.882;2022-11-25T02:05:06;3.80;;;1.40;;
71856;SDS011;63344;46.980;28.882;2022-11-25T02:07:39;5.50;;;2.25;;
71856;SDS011;63344;46.980;28.882;2022-11-25T02:10:11;4.10;;;2.05;;
71856;SDS011;63344;46.980;28.882;2022-11-25T02:12:42;4.10;;;1.90;;
71856;SDS011;63344;46.980;28.882;2022-11-25T02:15:12;4.85;;;2.63;;
71856;SDS011;63344;46.980;28.882;2022-11-25T02:20:13;6.15;;;2.40;;
71856;SDS011;63344;46.980;28.882;2022-11-25T02:22:56;5.93;;;2.75;;
71856;SDS011;63344;46.980;28.882;2022-11-25T02:25:32;4.63;;;2.35;;
71856;SDS011;63344;46.980;28.882;2022-11-25T02:30:35;7.10;;;2.83;;
71856;SDS011;63344;46.980;28.882;2022-11-25T02:33:03;5.18;;;2.72;;
71856;SDS011;63344;46.980;28.882;2022-11-25T02:35:31;6.78;;;2.22;;
71856;SDS011;63344;46.980;28.882;2022-11-25T02:38:08;5.38;;;2.63;;
71856;SDS011;63344;46.980;28.882;2022-11-25T02:40:46;6.55;;;2.60;;
71856;SDS011;63344;46.980;28.882;2022-11-25T02:43:26;6.72;;;3.45;;
71856;SDS011;63344;46.980;28.882;2022-11-25T02:46:01;8.30;;;3.22;;
71856;SDS011;63344;46.980;28.882;2022-11-25T02:48:31;7.97;;;3.40;;
71856;SDS011;63344;46.980;28.882;2022-11-25T02:51:21;5.25;;;2.30;;
71856;SDS011;63344;46.980;28.882;2022-11-25T02:53:50;9.30;;;3.45;;
71856;SDS011;63344;46.980;28.882;2022-11-25T02:56:20;8.32;;;3.60;;
71856;SDS011;63344;46.980;28.882;2022-11-25T02:58:48;5.72;;;3.08;;
71856;SDS011;63344;46.980;28.882;2022-11-25T03:01:16;8.38;;;3.60;;
71856;SDS011;63344;46.980;28.882;2022-11-25T03:03:43;10.52;;;4.00;;
71856;SDS011;63344;46.980;28.882;2022-11-25T03:06:11;8.18;;;3.85;;
71856;SDS011;63344;46.980;28.882;2022-11-25T03:08:38;7.45;;;3.35;;
71856;SDS011;63344;46.980;28.882;2022-11-25T03:11:05;8.30;;;2.92;;
71856;SDS011;63344;46.980;28.882;2022-11-25T03:13:32;12.98;;;4.43;;
71856;SDS011;63344;46.980;28.882;2022-11-25T03:16:00;9.05;;;3.03;;
71856;SDS011;63344;46.980;28.882;2022-11-25T03:18:27;9.52;;;4.05;;
71856;SDS011;63344;46.980;28.882;2022-11-25T03:20:56;8.73;;;3.85;;
71856;SDS011;63344;46.980;28.882;2022-11-25T03:23:23;11.63;;;3.72;;
71856;SDS011;63344;46.980;28.882;2022-11-25T03:25:51;9.48;;;3.90;;
71856;SDS011;63344;46.980;28.882;2022-11-25T03:28:18;7.65;;;3.65;;
71856;SDS011;63344;46.980;28.882;2022-11-25T03:30:47;4.95;;;2.42;;
71856;SDS011;63344;46.980;28.882;2022-11-25T03:33:15;8.43;;;3.67;;
71856;SDS011;63344;46.980;28.882;2022-11-25T03:35:42;9.40;;;3.92;;
71856;SDS011;63344;46.980;28.882;2022-11-25T03:38:09;13.40;;;4.82;;
71856;SDS011;63344;46.980;28.882;2022-11-25T03:40:37;11.35;;;4.55;;
71856;SDS011;63344;46.980;28.882;2022-11-25T03:43:04;10.52;;;3.90;;
71856;SDS011;63344;46.980;28.882;2022-11-25T03:45:36;9.13;;;4.32;;
71856;SDS011;63344;46.980;28.882;2022-11-25T03:48:03;6.80;;;2.97;;
71856;SDS011;63344;46.980;28.882;2022-11-25T03:50:31;8.07;;;3.72;;
71856;SDS011;63344;46.980;28.882;2022-11-25T03:52:58;6.28;;;3.30;;
71856;SDS011;63344;46.980;28.882;2022-11-25T03:55:26;7.32;;;2.80;;
71856;SDS011;63344;46.980;28.882;2022-11-25T03:57:53;8.32;;;2.55;;
71856;SDS011;63344;46.980;28.882;2022-11-25T04:00:20;7.47;;;3.08;;
71856;SDS011;63344;46.980;28.882;2022-11-25T04:02:47;6.22;;;3.05;;
71856;SDS011;63344;46.980;28.882;2022-11-25T04:05:15;6.20;;;2.92;;
71856;SDS011;63344;46.980;28.882;2022-11-25T04:07:43;5.65;;;3.00;;
71856;SDS011;63344;46.980;28.882;2022-11-25T04:10:10;5.95;;;2.58;;
71856;SDS011;63344;46.980;28.882;2022-11-25T04:12:37;3.80;;;1.85;;
71856;SDS011;63344;46.980;28.882;2022-11-25T04:15:14;5.85;;;2.92;;
71856;SDS011;63344;46.980;28.882;2022-11-25T04:17:44;6.55;;;3.17;;
71856;SDS011;63344;46.980;28.882;2022-11-25T04:20:12;6.18;;;3.08;;
71856;SDS011;63344;46.980;28.882;2022-11-25T04:22:53;4.15;;;2.22;;
71856;SDS011;63344;46.980;28.882;2022-11-25T04:25:37;5.38;;;3.10;;
71856;SDS011;63344;46.980;28.882;2022-11-25T04:28:04;6.32;;;2.78;;
71856;SDS011;63344;46.980;28.882;2022-11-25T04:30:32;5.30;;;3.13;;
71856;SDS011;63344;46.980;28.882;2022-11-25T04:33:01;6.85;;;3.08;;
71856;SDS011;63344;46.980;28.882;2022-11-25T04:35:43;6.43;;;3.13;;
71856;SDS011;63344;46.980;28.882;2022-11-25T04:38:10;7.78;;;3.17;;
71856;SDS011;63344;46.980;28.882;2022-11-25T04:40:38;4.57;;;2.00;;
71856;SDS011;63344;46.980;28.882;2022-11-25T04:43:05;5.22;;;2.40;;
71856;SDS011;63344;46.980;28.882;2022-11-25T04:45:36;5.63;;;2.92;;
71856;SDS011;63344;46.980;28.882;2022-11-25T04:48:23;5.70;;;2.90;;
71856;SDS011;63344;46.980;28.882;2022-11-25T04:50:51;5.78;;;2.78;;
71856;SDS011;63344;46.980;28.882;2022-11-25T04:53:18;6.90;;;2.65;;
71856;SDS011;63344;46.980;28.882;2022-11-25T04:55:49;4.25;;;2.42;;
71856;SDS011;63344;46.980;28.882;2022-11-25T04:58:16;5.30;;;2.50;;
71856;SDS011;63344;46.980;28.882;2022-11-25T05:01:08;5.70;;;2.50;;
71856;SDS011;63344;46.980;28.882;2022-11-25T05:03:35;2.90;;;1.23;;
71856;SDS011;63344;46.980;28.882;2022-11-25T05:06:08;7.13;;;3.60;;
71856;SDS011;63344;46.980;28.882;2022-11-25T05:08:36;4.28;;;2.33;;
71856;SDS011;63344;46.980;28.882;2022-11-25T05:11:03;5.05;;;2.28;;
71856;SDS011;63344;46.980;28.882;2022-11-25T05:13:35;4.60;;;2.35;;
71856;SDS011;63344;46.980;28.882;2022-11-25T05:16:07;4.18;;;1.70;;
71856;SDS011;63344;46.980;28.882;2022-11-25T05:18:35;8.55;;;3.10;;
71856;SDS011;63344;46.980;28.882;2022-11-25T05:21:03;5.82;;;2.50;;
71856;SDS011;63344;46.980;28.882;2022-11-25T05:23:31;4.05;;;2.13;;
71856;SDS011;63344;46.980;28.882;2022-11-25T05:26:00;5.55;;;2.85;;
71856;SDS011;63344;46.980;28.882;2022-11-25T05:28:28;4.43;;;2.33;;
71856;SDS011;63344;46.980;28.882;2022-11-25T05:30:56;4.45;;;2.38;;
71856;SDS011;63344;46.980;28.882;2022-11-25T05:33:26;4.97;;;2.20;;
71856;SDS011;63344;46.980;28.882;2022-11-25T05:36:15;6.40;;;2.90;;
71856;SDS011;63344;46.980;28.882;2022-11-25T05:38:50;5.05;;;2.25;;
71856;SDS011;63344;46.980;28.882;2022-11-25T05:41:18;3.83;;;1.80;;
71856;SDS011;63344;46.980;28.882;2022-11-25T05:43:45;4.95;;;2.20;;
71856;SDS011;63344;46.980;28.882;2022-11-25T05:46:18;3.45;;;1.92;;
71856;SDS011;63344;46.980;28.882;2022-11-25T05:48:46;6.10;;;2.58;;
71856;SDS011;63344;46.980;28.882;2022-11-25T05:51:20;7.45;;;3.00;;
71856;SDS011;63344;46.980;28.882;2022-11-25T05:53:47;4.88;;;2.35;;
71856;SDS011;63344;46.980;28.882;2022-11-25T05:56:15;4.07;;;2.15;;
71856;SDS011;63344;46.980;28.882;2022-11-25T05:58:42;7.43;;;3.40;;
71856;SDS011;63344;46.980;28.882;2022-11-25T06:01:14;5.97;;;3.28;;
71856;SDS011;63344;46.980;28.882;2022-11-25T06:03:42;4.03;;;2.35;;
71856;SDS011;63344;46.980;28.882;2022-11-25T06:06:10;7.25;;;3.78;;
71856;SDS011;63344;46.980;28.882;2022-11-25T06:08:38;3.70;;;1.92;;
71856;SDS011;63344;46.980;28.882;2022-11-25T06:11:06;9.98;;;3.60;;
71856;SDS011;63344;46.980;28.882;2022-11-25T06:13:39;4.25;;;2.33;;
71856;SDS011;63344;46.980;28.882;2022-11-25T06:18:36;5.13;;;2.58;;
71856;SDS011;63344;46.980;28.882;2022-11-25T06:21:05;8.02;;;3.45;;
71856;SDS011;63344;46.980;28.882;2022-11-25T06:23:36;6.68;;;3.72;;
71856;SDS011;63344;46.980;28.882;2022-11-25T06:26:09;7.88;;;3.75;;
71856;SDS011;63344;46.980;28.882;2022-11-25T06:28:53;6.00;;;2.85;;
71856;SDS011;63344;46.980;28.882;2022-11-25T06:31:22;8.27;;;3.17;;
71856;SDS011;63344;46.980;28.882;2022-11-25T06:33:51;5.40;;;2.83;;
71856;SDS011;63344;46.980;28.882;2022-11-25T06:36:20;7.00;;;3.60;;
71856;SDS011;63344;46.980;28.882;2022-11-25T06:38:49;10.10;;;3.70;;
71856;SDS011;63344;46.980;28.882;2022-11-25T06:41:18;5.28;;;2.60;;
71856;SDS011;63344;46.980;28.882;2022-11-25T06:43:47;5.05;;;1.90;;
71856;SDS011;63344;46.980;28.882;2022-11-25T06:46:18;9.30;;;3.97;;
71856;SDS011;63344;46.980;28.882;2022-11-25T06:48:51;9.25;;;4.40;;
71856;SDS011;63344;46.980;28.882;2022-11-25T06:51:19;9.75;;;4.32;;
71856;SDS011;63344;46.980;28.882;2022-11-25T06:53:46;8.07;;;4.03;;
71856;SDS011;63344;46.980;28.882;2022-11-25T06:56:17;10.23;;;5.20;;
71856;SDS011;63344;46.980;28.882;2022-11-25T06:58:47;7.03;;;3.47;;
71856;SDS011;63344;46.980;28.882;2022-11-25T07:01:19;9.85;;;4.53;;
71856;SDS011;63344;46.980;28.882;2022-11-25T07:03:51;8.30;;;4.60;;
71856;SDS011;63344;46.980;28.882;2022-11-25T07:06:27;10.95;;;4.90;;
71856;SDS011;63344;46.980;28.882;2022-11-25T07:08:55;5.30;;;3.03;;
71856;SDS011;63344;46.980;28.882;2022-11-25T07:11:26;9.13;;;4.63;;
71856;SDS011;63344;46.980;28.882;2022-11-25T07:14:01;6.53;;;3.35;;
71856;SDS011;63344;46.980;28.882;2022-11-25T07:16:32;9.70;;;4.10;;
71856;SDS011;63344;46.980;28.882;2022-11-25T07:19:00;9.95;;;4.85;;
71856;SDS011;63344;46.980;28.882;2022-11-25T07:21:28;10.15;;;4.15;;
71856;SDS011;63344;46.980;28.882;2022-11-25T07:23:57;6.93;;;3.40;;
71856;SDS011;63344;46.980;28.882;2022-11-25T07:26:30;9.27;;;3.67;;
71856;SDS011;63344;46.980;28.882;2022-11-25T07:29:01;6.65;;;3.67;;
71856;SDS011;63344;46.980;28.882;2022-11-25T07:31:31;6.20;;;3.42;;
71856;SDS011;63344;46.980;28.882;2022-11-25T07:34:08;11.25;;;4.20;;
71856;SDS011;63344;46.980;28.882;2022-11-25T07:36:40;9.75;;;4.13;;
71856;SDS011;63344;46.980;28.882;2022-11-25T07:39:11;7.80;;;4.47;;
71856;SDS011;63344;46.980;28.882;2022-11-25T07:41:42;7.38;;;3.33;;
71856;SDS011;63344;46.980;28.882;2022-11-25T07:44:13;9.52;;;4.03;;
71856;SDS011;63344;46.980;28.882;2022-11-25T07:46:42;9.80;;;4.65;;
71856;SDS011;63344;46.980;28.882;2022-11-25T07:51:54;8.02;;;3.83;;
71856;SDS011;63344;46.980;28.882;2022-11-25T07:54:23;8.85;;;3.40;;
71856;SDS011;63344;46.980;28.882;2022-11-25T07:56:53;6.35;;;2.83;;
71856;SDS011;63344;46.980;28.882;2022-11-25T07:59:23;6.35;;;3.38;;
71856;SDS011;63344;46.980;28.882;2022-11-25T08:01:51;11.05;;;4.18;;
71856;SDS011;63344;46.980;28.882;2022-11-25T08:04:20;6.85;;;2.92;;
71856;SDS011;63344;46.980;28.882;2022-11-25T08:06:49;7.65;;;3.28;;
71856;SDS011;63344;46.980;28.882;2022-11-25T08:09:19;7.18;;;3.40;;
71856;SDS011;63344;46.980;28.882;2022-11-25T08:11:48;7.88;;;3.00;;
71856;SDS011;63344;46.980;28.882;2022-11-25T08:14:18;6.63;;;3.33;;
71856;SDS011;63344;46.980;28.882;2022-11-25T08:16:45;6.50;;;3.45;;
71856;SDS011;63344;46.980;28.882;2022-11-25T08:19:14;5.88;;;3.05;;
71856;SDS011;63344;46.980;28.882;2022-11-25T08:21:44;7.63;;;3.40;;
71856;SDS011;63344;46.980;28.882;2022-11-25T08:24:19;5.88;;;3.10;;
71856;SDS011;63344;46.980;28.882;2022-11-25T08:26:48;7.47;;;4.07;;
71856;SDS011;63344;46.980;28.882;2022-11-25T08:29:16;7.40;;;3.25;;
71856;SDS011;63344;46.980;28.882;2022-11-25T08:31:45;8.20;;;3.47;;
71856;SDS011;63344;46.980;28.882;2022-11-25T08:34:17;5.68;;;2.80;;
71856;SDS011;63344;46.980;28.882;2022-11-25T08:36:46;7.45;;;3.25;;
71856;SDS011;63344;46.980;28.882;2022-11-25T08:39:15;8.95;;;4.15;;
71856;SDS011;63344;46.980;28.882;2022-11-25T08:42:04;10.27;;;4.63;;
71856;SDS011;63344;46.980;28.882;2022-11-25T08:44:32;9.18;;;4.47;;
71856;SDS011;63344;46.980;28.882;2022-11-25T08:47:00;10.20;;;4.88;;
71856;SDS011;63344;46.980;28.882;2022-11-25T08:49:27;11.77;;;4.45;;
71856;SDS011;63344;46.980;28.882;2022-11-25T08:52:02;11.15;;;5.07;;
71856;SDS011;63344;46.980;28.882;2022-11-25T08:54:30;6.93;;;3.10;;
71856;SDS011;63344;46.980;28.882;2022-11-25T08:57:00;9.65;;;5.22;;
71856;SDS011;63344;46.980;28.882;2022-11-25T08:59:27;8.60;;;4.43;;
71856;SDS011;63344;46.980;28.882;2022-11-25T09:01:57;9.55;;;3.20;;
71856;SDS011;63344;46.980;28.882;2022-11-25T09:04:25;10.25;;;5.10;;
71856;SDS011;63344;46.980;28.882;2022-11-25T09:06:52;9.05;;;4.55;;
71856;SDS011;63344;46.980;28.882;2022-11-25T09:09:20;7.05;;;4.00;;
71856;SDS011;63344;46.980;28.882;2022-11-25T09:11:47;10.93;;;4.18;;
71856;SDS011;63344;46.980;28.882;2022-11-25T09:14:15;13.05;;;4.88;;
71856;SDS011;63344;46.980;28.882;2022-11-25T09:16:52;9.73;;;4.82;;
71856;SDS011;63344;46.980;28.882;2022-11-25T09:19:20;11.45;;;5.80;;
71856;SDS011;63344;46.980;28.882;2022-11-25T09:21:47;10.25;;;4.03;;
71856;SDS011;63344;46.980;28.882;2022-11-25T09:24:19;9.73;;;3.58;;
71856;SDS011;63344;46.980;28.882;2022-11-25T09:27:01;9.77;;;4.72;;
71856;SDS011;63344;46.980;28.882;2022-11-25T09:29:28;9.55;;;4.50;;
71856;SDS011;63344;46.980;28.882;2022-11-25T09:31:57;7.85;;;4.28;;
71856;SDS011;63344;46.980;28.882;2022-11-25T09:34:28;9.55;;;3.50;;
71856;SDS011;63344;46.980;28.882;2022-11-25T09:36:58;8.43;;;4.22;;
71856;SDS011;63344;46.980;28.882;2022-11-25T09:39:27;6.93;;;3.90;;
71856;SDS011;63344;46.980;28.882;2022-11-25T09:42:02;8.30;;;4.22;;
71856;SDS011;63344;46.980;28.882;2022-11-25T09:45:23;6.25;;;3.67;;
71856;SDS011;63344;46.980;28.882;2022-11-25T09:55:02;9.52;;;4.82;;
71856;SDS011;63344;46.980;28.882;2022-11-25T10:00:16;8.13;;;4.00;;
71856;SDS011;63344;46.980;28.882;2022-11-25T10:05:49;8.02;;;3.95;;
71856;SDS011;63344;46.980;28.882;2022-11-25T10:08:49;17.23;;;5.18;;
71856;SDS011;63344;46.980;28.882;2022-11-25T10:16:50;8.05;;;3.55;;
71856;SDS011;63344;46.980;28.882;2022-11-25T10:19:58;14.75;;;4.53;;
71856;SDS011;63344;46.980;28.882;2022-11-25T10:22:41;7.15;;;4.10;;
71856;SDS011;63344;46.980;28.882;2022-11-25T10:37:24;9.77;;;4.38;;
71856;SDS011;63344;46.980;28.882;2022-11-25T10:43:10;10.75;;;5.30;;
71856;SDS011;63344;46.980;28.882;2022-11-25T10:54:21;9.25;;;5.07;;
71856;SDS011;63344;46.980;28.882;2022-11-25T10:56:58;12.93;;;6.72;;
71856;SDS011;63344;46.980;28.882;2022-11-25T10:59:38;7.47;;;3.88;;
71856;SDS011;63344;46.980;28.882;2022-11-25T11:07:36;10.25;;;5.30;;
71856;SDS011;63344;46.980;28.882;2022-11-25T11:10:21;8.88;;;4.18;;
71856;SDS011;63344;46.980;28.882;2022-11-25T11:18:13;7.35;;;3.95;;
71856;SDS011;63344;46.980;28.882;2022-11-25T11:21:06;11.40;;;3.92;;
71856;SDS011;63344;46.980;28.882;2022-11-25T11:23:48;12.70;;;6.38;;
71856;SDS011;63344;46.980;28.882;2022-11-25T11:26:24;8.18;;;4.78;;
71856;SDS011;63344;46.980;28.882;2022-11-25T11:28:58;11.55;;;4.97;;
71856;SDS011;63344;46.980;28.882;2022-11-25T11:48:40;9.93;;;5.13;;
71856;SDS011;63344;46.980;28.882;2022-11-25T11:54:20;12.95;;;5.32;;
71856;SDS011;63344;46.980;28.882;2022-11-25T11:57:05;10.38;;;5.28;;
71856;SDS011;63344;46.980;28.882;2022-11-25T12:00:07;12.70;;;4.60;;
71856;SDS011;63344;46.980;28.882;2022-11-25T12:07:43;7.63;;;3.67;;
71856;SDS011;63344;46.980;28.882;2022-11-25T12:21:12;11.90;;;6.00;;
71856;SDS011;63344;46.980;28.882;2022-11-25T12:27:09;6.35;;;3.30;;
71856;SDS011;63344;46.980;28.882;2022-11-25T12:37:41;8.38;;;4.28;;
71856;SDS011;63344;46.980;28.882;2022-11-25T12:40:28;16.35;;;3.95;;
71856;SDS011;63344;46.980;28.882;2022-11-25T12:46:07;8.38;;;4.07;;
71856;SDS011;63344;46.980;28.882;2022-11-25T12:48:55;11.18;;;5.18;;
71856;SDS011;63344;46.980;28.882;2022-11-25T12:51:31;5.88;;;3.08;;
71856;SDS011;63344;46.980;28.882;2022-11-25T13:08:56;9.43;;;4.05;;
71856;SDS011;63344;46.980;28.882;2022-11-25T13:17:10;8.55;;;4.13;;
71856;SDS011;63344;46.980;28.882;2022-11-25T13:19:44;11.88;;;4.30;;
71856;SDS011;63344;46.980;28.882;2022-11-25T13:24:58;8.73;;;4.25;;
71856;SDS011;63344;46.980;28.882;2022-11-25T13:27:31;8.05;;;4.15;;
71856;SDS011;63344;46.980;28.882;2022-11-25T13:35:51;8.63;;;4.55;;
71856;SDS011;63344;46.980;28.882;2022-11-25T13:38:35;7.68;;;3.95;;
71856;SDS011;63344;46.980;28.882;2022-11-25T13:41:24;9.38;;;3.90;;
71856;SDS011;63344;46.980;28.882;2022-11-25T13:44:04;6.35;;;3.65;;
71856;SDS011;63344;46.980;28.882;2022-11-25T13:46:50;5.85;;;3.75;;
71856;SDS011;63344;46.980;28.882;2022-11-25T13:54:50;10.88;;;5.47;;
71856;SDS011;63344;46.980;28.882;2022-11-25T13:57:30;7.38;;;3.50;;
71856;SDS011;63344;46.980;28.882;2022-11-25T14:00:24;9.30;;;4.85;;
71856;SDS011;63344;46.980;28.882;2022-11-25T14:08:50;7.57;;;4.53;;
71856;SDS011;63344;46.980;28.882;2022-11-25T14:14:22;9.35;;;4.55;;
71856;SDS011;63344;46.980;28.882;2022-11-25T14:22:41;7.13;;;3.75;;
71856;SDS011;63344;46.980;28.882;2022-11-25T14:25:22;8.90;;;3.97;;
71856;SDS011;63344;46.980;28.882;2022-11-25T14:28:07;11.85;;;4.00;;
71856;SDS011;63344;46.980;28.882;2022-11-25T14:30:47;9.13;;;4.65;;
71856;SDS011;63344;46.980;28.882;2022-11-25T14:33:25;11.43;;;4.13;;
71856;SDS011;63344;46.980;28.882;2022-11-25T14:36:10;9.45;;;4.10;;
71856;SDS011;63344;46.980;28.882;2022-11-25T14:38:47;10.27;;;4.47;;
71856;SDS011;63344;46.980;28.882;2022-11-25T14:45:22;8.98;;;4.05;;
71856;SDS011;63344;46.980;28.882;2022-11-25T14:51:03;8.43;;;3.85;;
71856;SDS011;63344;46.980;28.882;2022-11-25T14:54:16;8.07;;;3.50;;
71856;SDS011;63344;46.980;28.882;2022-11-25T14:57:02;7.75;;;3.70;;
71856;SDS011;63344;46.980;28.882;2022-11-25T15:00:10;10.10;;;4.60;;
71856;SDS011;63344;46.980;28.882;2022-11-25T15:07:15;6.80;;;3.50;;
71856;SDS011;63344;46.980;28.882;2022-11-25T15:13:33;9.98;;;4.97;;
71856;SDS011;63344;46.980;28.882;2022-11-25T15:16:15;7.00;;;3.70;;
71856;SDS011;63344;46.980;28.882;2022-11-25T15:18:49;10.43;;;4.20;;
71856;SDS011;63344;46.980;28.882;2022-11-25T15:21:37;7.68;;;4.47;;
71856;SDS011;63344;46.980;28.882;2022-11-25T15:24:29;8.05;;;3.83;;
71856;SDS011;63344;46.980;28.882;2022-11-25T15:26:57;10.82;;;4.70;;
71856;SDS011;63344;46.980;28.882;2022-11-25T15:29:43;10.73;;;4.88;;
71856;SDS011;63344;46.980;28.882;2022-11-25T15:32:14;9.00;;;4.72;;
71856;SDS011;63344;46.980;28.882;2022-11-25T15:34:46;8.38;;;4.72;;
71856;SDS011;63344;46.980;28.882;2022-11-25T15:37:17;11.10;;;6.05;;
71856;SDS011;63344;46.980;28.882;2022-11-25T15:39:45;6.40;;;3.83;;
71856;SDS011;63344;46.980;28.882;2022-11-25T15:42:19;11.65;;;5.57;;
71856;SDS011;63344;46.980;28.882;2022-11-25T15:47:34;10.27;;;4.90;;
71856;SDS011;63344;46.980;28.882;2022-11-25T15:50:16;7.93;;;3.85;;
71856;SDS011;63344;46.980;28.882;2022-11-25T15:52:55;9.80;;;4.35;;
71856;SDS011;63344;46.980;28.882;2022-11-25T15:55:33;8.02;;;4.25;;
71856;SDS011;63344;46.980;28.882;2022-11-25T15:58:10;9.05;;;3.83;;
71856;SDS011;63344;46.980;28.882;2022-11-25T16:00:39;10.95;;;4.15;;
71856;SDS011;63344;46.980;28.882;2022-11-25T16:03:20;7.72;;;4.50;;
71856;SDS011;63344;46.980;28.882;2022-11-25T16:05:54;9.55;;;5.07;;
71856;SDS011;63344;46.980;28.882;2022-11-25T16:11:14;10.27;;;4.72;;
71856;SDS011;63344;46.980;28.882;2022-11-25T16:13:46;9.23;;;4.95;;
71856;SDS011;63344;46.980;28.882;2022-11-25T16:16:26;12.88;;;5.25;;
71856;SDS011;63344;46.980;28.882;2022-11-25T16:29:29;8.32;;;5.00;;
71856;SDS011;63344;46.980;28.882;2022-11-25T16:31:59;8.60;;;4.38;;
71856;SDS011;63344;46.980;28.882;2022-11-25T16:34:29;9.98;;;4.88;;
71856;SDS011;63344;46.980;28.882;2022-11-25T16:36:58;8.98;;;4.30;;
71856;SDS011;63344;46.980;28.882;2022-11-25T16:39:25;9.95;;;5.03;;
71856;SDS011;63344;46.980;28.882;2022-11-25T16:41:55;7.28;;;3.58;;
71856;SDS011;63344;46.980;28.882;2022-11-25T16:44:24;8.57;;;3.97;;
71856;SDS011;63344;46.980;28.882;2022-11-25T16:46:53;10.55;;;5.03;;
71856;SDS011;63344;46.980;28.882;2022-11-25T16:49:20;11.13;;;6.05;;
71856;SDS011;63344;46.980;28.882;2022-11-25T16:51:52;9.63;;;4.93;;
71856;SDS011;63344;46.980;28.882;2022-11-25T16:54:20;10.50;;;4.70;;
71856;SDS011;63344;46.980;28.882;2022-11-25T16:59:19;9.65;;;4.72;;
71856;SDS011;63344;46.980;28.882;2022-11-25T17:01:55;10.40;;;5.68;;
71856;SDS011;63344;46.980;28.882;2022-11-25T17:04:28;11.57;;;5.80;;
71856;SDS011;63344;46.980;28.882;2022-11-25T17:06:55;8.82;;;4.40;;
71856;SDS011;63344;46.980;28.882;2022-11-25T17:09:43;9.98;;;5.25;;
71856;SDS011;63344;46.980;28.882;2022-11-25T17:12:26;10.70;;;5.20;;
71856;SDS011;63344;46.980;28.882;2022-11-25T17:15:07;10.98;;;5.40;;
71856;SDS011;63344;46.980;28.882;2022-11-25T17:18:13;11.80;;;5.78;;
71856;SDS011;63344;46.980;28.882;2022-11-25T17:20:43;9.68;;;5.05;;
71856;SDS011;63344;46.980;28.882;2022-11-25T17:23:24;13.90;;;5.38;;
71856;SDS011;63344;46.980;28.882;2022-11-25T17:25:52;13.10;;;5.97;;
71856;SDS011;63344;46.980;28.882;2022-11-25T17:28:24;11.65;;;5.72;;
71856;SDS011;63344;46.980;28.882;2022-11-25T17:30:53;11.93;;;5.65;;
71856;SDS011;63344;46.980;28.882;2022-11-25T17:33:21;10.95;;;5.28;;
71856;SDS011;63344;46.980;28.882;2022-11-25T17:35:48;11.88;;;5.93;;
71856;SDS011;63344;46.980;28.882;2022-11-25T17:38:19;12.32;;;6.80;;
71856;SDS011;63344;46.980;28.882;2022-11-25T17:40:48;15.27;;;6.88;;
71856;SDS011;63344;46.980;28.882;2022-11-25T17:43:18;10.77;;;5.53;;
71856;SDS011;63344;46.980;28.882;2022-11-25T17:45:46;13.05;;;6.57;;
71856;SDS011;63344;46.980;28.882;2022-11-25T17:48:15;11.75;;;6.07;;
71856;SDS011;63344;46.980;28.882;2022-11-25T17:50:47;12.98;;;6.75;;
71856;SDS011;63344;46.980;28.882;2022-11-25T17:53:16;14.77;;;7.07;;
71856;SDS011;63344;46.980;28.882;2022-11-25T17:55:43;17.70;;;6.65;;
71856;SDS011;63344;46.980;28.882;2022-11-25T17:58:11;16.25;;;6.70;;
71856;SDS011;63344;46.980;28.882;2022-11-25T18:00:43;10.80;;;6.28;;
71856;SDS011;63344;46.980;28.882;2022-11-25T18:03:16;13.00;;;6.35;;
71856;SDS011;63344;46.980;28.882;2022-11-25T18:06:07;12.85;;;6.72;;
71856;SDS011;63344;46.980;28.882;2022-11-25T18:08:34;12.10;;;5.82;;
71856;SDS011;63344;46.980;28.882;2022-11-25T18:11:03;15.93;;;7.13;;
71856;SDS011;63344;46.980;28.882;2022-11-25T18:13:47;11.85;;;6.57;;
71856;SDS011;63344;46.980;28.882;2022-11-25T18:16:15;12.00;;;6.32;;
71856;SDS011;63344;46.980;28.882;2022-11-25T18:18:47;12.35;;;6.45;;
71856;SDS011;63344;46.980;28.882;2022-11-25T18:21:14;13.48;;;6.97;;
71856;SDS011;63344;46.980;28.882;2022-11-25T18:23:44;17.13;;;7.45;;
71856;SDS011;63344;46.980;28.882;2022-11-25T18:26:12;10.45;;;5.68;;